Thief River Falls, MN (56701)

3:51 PM CST on January 21, 2017 (GMT -0600)
Molstads | | Change Station

Elev 1132 ft 48.21 °N, 96.17 °W | Updated 4 seconds ago

Overcast
Overcast
35.1 °F
Feels Like 30 °F
N
5.6
Wind Variable Wind from East
Gusts 7.4 mph

Today
High -- | Low -- °F
--% Chance of Precip.
Yesterday
High -- | Low -- °F
Precip. -- in
Pressure 29.49 in
Visibility 10.0 miles
Clouds Overcast 2900 ft
Windchill 30 °F
Dew Point 30 °F
Humidity 83%
Rainfall 0.00 in
Snow Depth Not available.
8:04 AM 5:07 PM
Waning Crescent, 32% visible
METAR KTVF 212056Z AUTO 09006KT 10SM OVC029 02/01 A2945 RMK AO2 UPB28E40RAB40E41 SLP984 6//// T00220006 53004 FZRANO
Pressure 29.49 in
Visibility 10.0 miles
Clouds Overcast 2900 ft
Windchill 30 °F
Dew Point 30 °F
Humidity 83%
Rainfall 0.00 in
Snow Depth Not available.
8:04 AM 5:07 PM
Waning Crescent, 32% visible
METAR KTVF 212056Z AUTO 09006KT 10SM OVC029 02/01 A2945 RMK AO2 UPB28E40RAB40E41 SLP984 6//// T00220006 53004 FZRANO

Get Your Daily Forecast Email!

Thanks for signing up!

Be on the lookout for a verification email in your inbox.

You'll start receiving the daily forecast at 8 AM.

×

10-Day Weather Forecast

Almanac

Astronomy

Jan. 21, 2017 Rise Set
Actual Time
Civil Twilight
Nautical Twilight
Astronomical Twilight
Moon
Length of Visible Light
Length of Day
Tomorrow will be .
, % of the Moon is Illuminated

Today's Extremes

State Highs State Lows

Community

WunderPhotos

Upload Photos

1,962,540 photos uploaded!

WunderBlog® & News

Nearby

Air Quality

  Air Quality AQ Index Pollutant
Not available.

Snow Depth

Station Depth Elevation

Earthquake Activity

City Distance Mag. Time & Date
Minimum magnitude displayed is 2.5.

Coastal Water Temperatures

Place Temperature

Stations

Nearby Weather Stations

Station Location Temp. Windchill Dew Point Humidity Wind Precip. Elev Updated Type
                   

Watches & Warnings

There are currently no watches in effect.